sensor_id;sensor_type;location;lat;lon;timestamp;P1;durP1;ratioP1;P2;durP2;ratioP2
22425;SDS011;11380;50.822;15.790;2022-10-31T00:04:36;51.42;;;46.70;;
22425;SDS011;11380;50.822;15.790;2022-10-31T00:14:49;68.03;;;54.67;;
22425;SDS011;11380;50.822;15.790;2022-10-31T00:19:54;62.93;;;55.77;;
22425;SDS011;11380;50.822;15.790;2022-10-31T00:25:00;50.37;;;45.80;;
22425;SDS011;11380;50.822;15.790;2022-10-31T00:30:05;48.90;;;44.80;;
22425;SDS011;11380;50.822;15.790;2022-10-31T00:35:12;49.18;;;44.98;;
22425;SDS011;11380;50.822;15.790;2022-10-31T00:40:18;48.70;;;44.60;;
22425;SDS011;11380;50.822;15.790;2022-10-31T00:45:23;48.77;;;44.77;;
22425;SDS011;11380;50.822;15.790;2022-10-31T00:50:28;49.75;;;45.25;;
22425;SDS011;11380;50.822;15.790;2022-10-31T00:55:33;49.23;;;45.03;;
22425;SDS011;11380;50.822;15.790;2022-10-31T01:00:38;49.97;;;45.10;;
22425;SDS011;11380;50.822;15.790;2022-10-31T01:05:44;49.97;;;45.57;;
22425;SDS011;11380;50.822;15.790;2022-10-31T01:11:06;49.37;;;45.07;;
22425;SDS011;11380;50.822;15.790;2022-10-31T01:16:13;48.77;;;44.63;;
22425;SDS011;11380;50.822;15.790;2022-10-31T01:21:26;48.80;;;44.43;;
22425;SDS011;11380;50.822;15.790;2022-10-31T01:26:29;48.80;;;44.83;;
22425;SDS011;11380;50.822;15.790;2022-10-31T01:31:38;49.40;;;45.17;;
22425;SDS011;11380;50.822;15.790;2022-10-31T01:36:45;47.97;;;44.13;;
22425;SDS011;11380;50.822;15.790;2022-10-31T01:41:53;48.93;;;44.93;;
22425;SDS011;11380;50.822;15.790;2022-10-31T01:47:05;48.67;;;44.37;;
22425;SDS011;11380;50.822;15.790;2022-10-31T01:52:27;47.43;;;43.73;;
22425;SDS011;11380;50.822;15.790;2022-10-31T01:57:38;48.13;;;44.03;;
22425;SDS011;11380;50.822;15.790;2022-10-31T02:02:45;47.80;;;43.93;;
22425;SDS011;11380;50.822;15.790;2022-10-31T02:07:56;49.25;;;44.75;;
22425;SDS011;11380;50.822;15.790;2022-10-31T02:13:04;48.37;;;44.47;;
22425;SDS011;11380;50.822;15.790;2022-10-31T02:18:12;48.15;;;44.15;;
22425;SDS011;11380;50.822;15.790;2022-10-31T02:29:01;49.20;;;44.93;;
22425;SDS011;11380;50.822;15.790;2022-10-31T02:34:15;48.40;;;44.33;;
22425;SDS011;11380;50.822;15.790;2022-10-31T03:00:37;48.07;;;43.97;;
22425;SDS011;11380;50.822;15.790;2022-10-31T03:06:02;49.67;;;44.57;;
22425;SDS011;11380;50.822;15.790;2022-10-31T03:11:23;47.10;;;43.55;;
22425;SDS011;11380;50.822;15.790;2022-10-31T03:16:46;46.90;;;43.20;;
22425;SDS011;11380;50.822;15.790;2022-10-31T03:22:00;48.23;;;44.20;;
22425;SDS011;11380;50.822;15.790;2022-10-31T03:27:05;46.98;;;43.38;;
22425;SDS011;11380;50.822;15.790;2022-10-31T03:32:15;48.65;;;44.65;;
22425;SDS011;11380;50.822;15.790;2022-10-31T03:37:22;47.33;;;43.63;;
22425;SDS011;11380;50.822;15.790;2022-10-31T03:42:31;47.37;;;43.67;;
22425;SDS011;11380;50.822;15.790;2022-10-31T03:47:38;47.30;;;43.73;;
22425;SDS011;11380;50.822;15.790;2022-10-31T03:52:56;48.33;;;43.83;;
22425;SDS011;11380;50.822;15.790;2022-10-31T03:58:05;47.60;;;43.90;;
22425;SDS011;11380;50.822;15.790;2022-10-31T04:03:17;47.93;;;43.80;;
22425;SDS011;11380;50.822;15.790;2022-10-31T04:08:24;47.80;;;43.90;;
22425;SDS011;11380;50.822;15.790;2022-10-31T04:13:32;47.80;;;43.90;;
22425;SDS011;11380;50.822;15.790;2022-10-31T04:18:40;48.42;;;44.33;;
22425;SDS011;11380;50.822;15.790;2022-10-31T04:23:45;47.77;;;43.87;;
22425;SDS011;11380;50.822;15.790;2022-10-31T04:28:50;47.30;;;43.70;;
22425;SDS011;11380;50.822;15.790;2022-10-31T04:33:56;47.20;;;43.43;;
22425;SDS011;11380;50.822;15.790;2022-10-31T04:39:01;47.57;;;43.80;;
22425;SDS011;11380;50.822;15.790;2022-10-31T04:44:07;47.53;;;43.63;;
22425;SDS011;11380;50.822;15.790;2022-10-31T04:49:13;48.10;;;43.83;;
22425;SDS011;11380;50.822;15.790;2022-10-31T04:54:18;48.83;;;44.20;;
22425;SDS011;11380;50.822;15.790;2022-10-31T04:59:23;48.23;;;44.13;;
22425;SDS011;11380;50.822;15.790;2022-10-31T05:04:28;46.57;;;43.03;;
22425;SDS011;11380;50.822;15.790;2022-10-31T05:09:34;47.00;;;43.37;;
22425;SDS011;11380;50.822;15.790;2022-10-31T05:14:40;47.87;;;44.07;;
22425;SDS011;11380;50.822;15.790;2022-10-31T05:19:46;46.80;;;43.30;;
22425;SDS011;11380;50.822;15.790;2022-10-31T05:24:51;47.10;;;43.10;;
22425;SDS011;11380;50.822;15.790;2022-10-31T05:29:57;46.60;;;43.03;;
22425;SDS011;11380;50.822;15.790;2022-10-31T05:35:03;46.83;;;43.23;;
22425;SDS011;11380;50.822;15.790;2022-10-31T05:40:11;46.43;;;42.93;;
22425;SDS011;11380;50.822;15.790;2022-10-31T05:45:18;47.87;;;43.90;;
22425;SDS011;11380;50.822;15.790;2022-10-31T05:55:30;48.63;;;44.73;;
22425;SDS011;11380;50.822;15.790;2022-10-31T06:00:36;48.90;;;44.83;;
22425;SDS011;11380;50.822;15.790;2022-10-31T06:05:42;48.40;;;44.30;;
22425;SDS011;11380;50.822;15.790;2022-10-31T06:10:49;48.60;;;44.70;;
22425;SDS011;11380;50.822;15.790;2022-10-31T06:15:56;47.03;;;43.43;;
22425;SDS011;11380;50.822;15.790;2022-10-31T06:21:01;47.30;;;43.80;;
22425;SDS011;11380;50.822;15.790;2022-10-31T06:26:07;46.60;;;43.00;;
22425;SDS011;11380;50.822;15.790;2022-10-31T06:31:12;47.97;;;44.17;;
22425;SDS011;11380;50.822;15.790;2022-10-31T06:36:17;48.58;;;44.24;;
22425;SDS011;11380;50.822;15.790;2022-10-31T06:41:23;47.83;;;44.10;;
22425;SDS011;11380;50.822;15.790;2022-10-31T06:46:29;50.17;;;45.87;;
22425;SDS011;11380;50.822;15.790;2022-10-31T06:51:34;48.53;;;44.30;;
22425;SDS011;11380;50.822;15.790;2022-10-31T06:56:39;48.07;;;44.23;;
22425;SDS011;11380;50.822;15.790;2022-10-31T07:01:45;48.43;;;44.73;;
22425;SDS011;11380;50.822;15.790;2022-10-31T07:06:51;50.23;;;46.17;;
22425;SDS011;11380;50.822;15.790;2022-10-31T07:11:57;48.93;;;45.07;;
22425;SDS011;11380;50.822;15.790;2022-10-31T07:17:02;49.40;;;45.50;;
22425;SDS011;11380;50.822;15.790;2022-10-31T07:22:08;50.33;;;46.20;;
22425;SDS011;11380;50.822;15.790;2022-10-31T07:32:18;53.60;;;48.80;;
22425;SDS011;11380;50.822;15.790;2022-10-31T07:37:27;53.23;;;48.60;;
22425;SDS011;11380;50.822;15.790;2022-10-31T07:42:35;54.13;;;48.97;;
22425;SDS011;11380;50.822;15.790;2022-10-31T07:47:46;55.10;;;49.90;;
22425;SDS011;11380;50.822;15.790;2022-10-31T08:03:18;55.58;;;50.20;;
22425;SDS011;11380;50.822;15.790;2022-10-31T08:08:23;55.73;;;50.57;;
22425;SDS011;11380;50.822;15.790;2022-10-31T08:13:32;55.27;;;49.80;;
22425;SDS011;11380;50.822;15.790;2022-10-31T08:18:38;55.27;;;49.93;;
22425;SDS011;11380;50.822;15.790;2022-10-31T08:23:43;54.50;;;49.47;;
22425;SDS011;11380;50.822;15.790;2022-10-31T08:28:48;55.07;;;49.87;;
22425;SDS011;11380;50.822;15.790;2022-10-31T08:33:53;56.80;;;51.50;;
22425;SDS011;11380;50.822;15.790;2022-10-31T08:38:58;56.53;;;51.03;;
22425;SDS011;11380;50.822;15.790;2022-10-31T08:44:05;55.80;;;50.33;;
22425;SDS011;11380;50.822;15.790;2022-10-31T08:49:10;57.67;;;52.07;;
22425;SDS011;11380;50.822;15.790;2022-10-31T08:54:15;57.67;;;51.97;;
22425;SDS011;11380;50.822;15.790;2022-10-31T08:59:20;59.50;;;53.65;;
22425;SDS011;11380;50.822;15.790;2022-10-31T09:04:37;59.48;;;53.30;;
22425;SDS011;11380;50.822;15.790;2022-10-31T09:09:43;55.55;;;50.25;;
22425;SDS011;11380;50.822;15.790;2022-10-31T09:14:49;54.77;;;49.37;;
22425;SDS011;11380;50.822;15.790;2022-10-31T09:19:54;55.97;;;50.40;;
22425;SDS011;11380;50.822;15.790;2022-10-31T09:24:59;54.87;;;49.73;;
22425;SDS011;11380;50.822;15.790;2022-10-31T09:30:05;55.60;;;50.17;;
22425;SDS011;11380;50.822;15.790;2022-10-31T09:35:11;55.43;;;50.33;;
22425;SDS011;11380;50.822;15.790;2022-10-31T09:40:17;56.27;;;50.87;;
22425;SDS011;11380;50.822;15.790;2022-10-31T09:45:28;56.73;;;50.97;;
22425;SDS011;11380;50.822;15.790;2022-10-31T09:50:56;56.30;;;50.77;;
22425;SDS011;11380;50.822;15.790;2022-10-31T09:56:05;57.53;;;51.50;;
22425;SDS011;11380;50.822;15.790;2022-10-31T10:01:38;56.10;;;50.55;;
22425;SDS011;11380;50.822;15.790;2022-10-31T10:06:41;56.57;;;51.03;;
22425;SDS011;11380;50.822;15.790;2022-10-31T10:11:58;57.40;;;51.73;;
22425;SDS011;11380;50.822;15.790;2022-10-31T10:17:11;57.13;;;51.30;;
22425;SDS011;11380;50.822;15.790;2022-10-31T10:33:08;57.53;;;51.53;;
22425;SDS011;11380;50.822;15.790;2022-10-31T10:38:37;57.13;;;51.80;;
22425;SDS011;11380;50.822;15.790;2022-10-31T10:43:55;57.40;;;51.63;;
22425;SDS011;11380;50.822;15.790;2022-10-31T10:59:53;56.77;;;51.07;;
22425;SDS011;11380;50.822;15.790;2022-10-31T11:05:13;57.77;;;51.87;;
22425;SDS011;11380;50.822;15.790;2022-10-31T11:10:20;56.87;;;51.37;;
22425;SDS011;11380;50.822;15.790;2022-10-31T11:15:25;56.80;;;51.27;;
22425;SDS011;11380;50.822;15.790;2022-10-31T11:20:34;58.78;;;51.45;;
22425;SDS011;11380;50.822;15.790;2022-10-31T11:25:40;56.58;;;50.88;;
22425;SDS011;11380;50.822;15.790;2022-10-31T11:31:11;56.23;;;50.57;;
22425;SDS011;11380;50.822;15.790;2022-10-31T11:36:21;56.25;;;50.75;;
22425;SDS011;11380;50.822;15.790;2022-10-31T11:41:32;57.23;;;51.47;;
22425;SDS011;11380;50.822;15.790;2022-10-31T11:46:48;56.75;;;50.95;;
22425;SDS011;11380;50.822;15.790;2022-10-31T11:51:56;57.55;;;51.75;;
22425;SDS011;11380;50.822;15.790;2022-10-31T11:57:04;56.85;;;51.05;;
22425;SDS011;11380;50.822;15.790;2022-10-31T12:07:22;56.80;;;51.30;;
22425;SDS011;11380;50.822;15.790;2022-10-31T12:17:55;56.15;;;50.65;;
22425;SDS011;11380;50.822;15.790;2022-10-31T12:23:17;57.27;;;51.63;;
22425;SDS011;11380;50.822;15.790;2022-10-31T12:34:13;56.60;;;51.10;;
22425;SDS011;11380;50.822;15.790;2022-10-31T12:39:25;56.35;;;50.83;;
22425;SDS011;11380;50.822;15.790;2022-10-31T13:00:48;57.10;;;51.30;;
22425;SDS011;11380;50.822;15.790;2022-10-31T13:06:18;57.07;;;51.37;;
22425;SDS011;11380;50.822;15.790;2022-10-31T13:11:31;57.40;;;51.17;;
22425;SDS011;11380;50.822;15.790;2022-10-31T13:16:40;56.77;;;50.90;;
22425;SDS011;11380;50.822;15.790;2022-10-31T13:22:05;56.50;;;50.77;;
22425;SDS011;11380;50.822;15.790;2022-10-31T13:27:18;56.60;;;51.02;;
22425;SDS011;11380;50.822;15.790;2022-10-31T13:32:25;56.77;;;50.98;;
22425;SDS011;11380;50.822;15.790;2022-10-31T13:37:40;56.23;;;50.60;;
22425;SDS011;11380;50.822;15.790;2022-10-31T13:53:22;56.93;;;51.27;;
22425;SDS011;11380;50.822;15.790;2022-10-31T13:58:57;57.60;;;51.88;;
22425;SDS011;11380;50.822;15.790;2022-10-31T14:04:05;57.17;;;51.13;;
22425;SDS011;11380;50.822;15.790;2022-10-31T14:09:24;56.20;;;50.53;;
22425;SDS011;11380;50.822;15.790;2022-10-31T14:14:29;56.40;;;50.87;;
22425;SDS011;11380;50.822;15.790;2022-10-31T14:19:35;56.43;;;50.87;;
22425;SDS011;11380;50.822;15.790;2022-10-31T14:24:42;56.47;;;50.80;;
22425;SDS011;11380;50.822;15.790;2022-10-31T14:29:47;58.20;;;52.63;;
22425;SDS011;11380;50.822;15.790;2022-10-31T14:34:57;56.77;;;51.13;;
22425;SDS011;11380;50.822;15.790;2022-10-31T14:45:53;57.20;;;51.63;;
22425;SDS011;11380;50.822;15.790;2022-10-31T14:56:27;56.33;;;50.67;;
22425;SDS011;11380;50.822;15.790;2022-10-31T15:01:53;56.97;;;51.43;;
22425;SDS011;11380;50.822;15.790;2022-10-31T15:06:57;57.20;;;51.47;;
22425;SDS011;11380;50.822;15.790;2022-10-31T15:12:25;56.67;;;51.17;;
22425;SDS011;11380;50.822;15.790;2022-10-31T15:17:35;57.63;;;52.03;;
22425;SDS011;11380;50.822;15.790;2022-10-31T15:22:43;58.73;;;52.80;;
22425;SDS011;11380;50.822;15.790;2022-10-31T15:27:50;59.83;;;53.33;;
22425;SDS011;11380;50.822;15.790;2022-10-31T15:32:57;61.88;;;55.30;;
22425;SDS011;11380;50.822;15.790;2022-10-31T15:38:03;59.80;;;53.70;;
22425;SDS011;11380;50.822;15.790;2022-10-31T15:43:10;60.17;;;53.97;;
22425;SDS011;11380;50.822;15.790;2022-10-31T15:48:22;60.97;;;54.47;;
22425;SDS011;11380;50.822;15.790;2022-10-31T15:53:33;63.53;;;56.80;;
22425;SDS011;11380;50.822;15.790;2022-10-31T15:58:42;67.73;;;59.57;;
22425;SDS011;11380;50.822;15.790;2022-10-31T16:09:21;59.37;;;53.10;;
22425;SDS011;11380;50.822;15.790;2022-10-31T16:14:28;58.50;;;52.50;;
22425;SDS011;11380;50.822;15.790;2022-10-31T16:19:36;59.27;;;53.37;;
22425;SDS011;11380;50.822;15.790;2022-10-31T16:24:45;60.03;;;53.47;;
22425;SDS011;11380;50.822;15.790;2022-10-31T16:29:57;60.30;;;54.03;;
22425;SDS011;11380;50.822;15.790;2022-10-31T16:40:17;65.53;;;57.70;;
22425;SDS011;11380;50.822;15.790;2022-10-31T16:45:29;61.37;;;55.17;;
22425;SDS011;11380;50.822;15.790;2022-10-31T16:50:32;85.57;;;65.90;;
22425;SDS011;11380;50.822;15.790;2022-10-31T16:55:41;70.20;;;59.40;;
22425;SDS011;11380;50.822;15.790;2022-10-31T17:00:56;63.43;;;55.87;;
22425;SDS011;11380;50.822;15.790;2022-10-31T17:06:02;63.98;;;56.37;;
22425;SDS011;11380;50.822;15.790;2022-10-31T17:11:15;62.40;;;55.90;;
22425;SDS011;11380;50.822;15.790;2022-10-31T17:16:21;60.80;;;54.67;;
22425;SDS011;11380;50.822;15.790;2022-10-31T17:21:26;83.33;;;61.83;;
22425;SDS011;11380;50.822;15.790;2022-10-31T17:26:32;62.47;;;56.27;;
22425;SDS011;11380;50.822;15.790;2022-10-31T17:31:37;56.23;;;50.83;;
22425;SDS011;11380;50.822;15.790;2022-10-31T17:36:48;56.07;;;50.93;;
22425;SDS011;11380;50.822;15.790;2022-10-31T17:41:54;57.37;;;51.57;;
22425;SDS011;11380;50.822;15.790;2022-10-31T17:46:59;63.83;;;57.13;;
22425;SDS011;11380;50.822;15.790;2022-10-31T17:52:05;70.70;;;57.93;;
22425;SDS011;11380;50.822;15.790;2022-10-31T17:57:11;66.47;;;59.47;;
22425;SDS011;11380;50.822;15.790;2022-10-31T18:02:17;66.65;;;59.88;;
22425;SDS011;11380;50.822;15.790;2022-10-31T18:07:25;80.63;;;68.23;;
22425;SDS011;11380;50.822;15.790;2022-10-31T18:12:29;74.27;;;66.37;;
22425;SDS011;11380;50.822;15.790;2022-10-31T18:17:36;68.30;;;61.05;;
22425;SDS011;11380;50.822;15.790;2022-10-31T18:22:43;59.00;;;53.27;;
22425;SDS011;11380;50.822;15.790;2022-10-31T18:27:49;57.20;;;51.80;;
22425;SDS011;11380;50.822;15.790;2022-10-31T18:32:54;57.50;;;51.70;;
22425;SDS011;11380;50.822;15.790;2022-10-31T18:37:59;57.60;;;51.90;;
22425;SDS011;11380;50.822;15.790;2022-10-31T18:43:07;57.87;;;52.27;;
22425;SDS011;11380;50.822;15.790;2022-10-31T18:48:13;57.05;;;50.92;;
22425;SDS011;11380;50.822;15.790;2022-10-31T18:53:21;58.10;;;52.58;;
22425;SDS011;11380;50.822;15.790;2022-10-31T18:58:28;58.70;;;52.70;;
22425;SDS011;11380;50.822;15.790;2022-10-31T19:03:36;77.07;;;62.70;;
22425;SDS011;11380;50.822;15.790;2022-10-31T19:13:47;69.75;;;61.08;;
22425;SDS011;11380;50.822;15.790;2022-10-31T19:18:54;65.70;;;59.23;;
22425;SDS011;11380;50.822;15.790;2022-10-31T19:24:01;63.67;;;57.03;;
22425;SDS011;11380;50.822;15.790;2022-10-31T19:29:07;62.07;;;55.53;;
22425;SDS011;11380;50.822;15.790;2022-10-31T19:34:14;62.06;;;55.66;;
22425;SDS011;11380;50.822;15.790;2022-10-31T19:39:20;62.07;;;55.17;;
22425;SDS011;11380;50.822;15.790;2022-10-31T19:44:26;61.97;;;55.33;;
22425;SDS011;11380;50.822;15.790;2022-10-31T19:49:33;71.72;;;63.00;;
22425;SDS011;11380;50.822;15.790;2022-10-31T19:54:38;65.57;;;58.40;;
22425;SDS011;11380;50.822;15.790;2022-10-31T19:59:43;72.33;;;61.00;;
22425;SDS011;11380;50.822;15.790;2022-10-31T20:04:48;68.13;;;60.50;;
22425;SDS011;11380;50.822;15.790;2022-10-31T20:09:53;65.00;;;58.07;;
22425;SDS011;11380;50.822;15.790;2022-10-31T20:14:59;62.23;;;55.63;;
22425;SDS011;11380;50.822;15.790;2022-10-31T20:20:06;62.20;;;55.60;;
22425;SDS011;11380;50.822;15.790;2022-10-31T20:25:12;64.27;;;57.20;;
22425;SDS011;11380;50.822;15.790;2022-10-31T20:30:18;63.87;;;57.17;;
22425;SDS011;11380;50.822;15.790;2022-10-31T20:35:23;61.83;;;55.67;;
22425;SDS011;11380;50.822;15.790;2022-10-31T20:40:29;60.60;;;54.63;;
22425;SDS011;11380;50.822;15.790;2022-10-31T20:45:34;63.10;;;56.53;;
22425;SDS011;11380;50.822;15.790;2022-10-31T20:50:41;62.95;;;56.02;;
22425;SDS011;11380;50.822;15.790;2022-10-31T20:55:46;61.93;;;55.43;;
22425;SDS011;11380;50.822;15.790;2022-10-31T21:00:52;60.53;;;54.40;;
22425;SDS011;11380;50.822;15.790;2022-10-31T21:11:06;58.15;;;52.45;;
22425;SDS011;11380;50.822;15.790;2022-10-31T21:16:16;57.73;;;52.50;;
22425;SDS011;11380;50.822;15.790;2022-10-31T21:21:28;68.87;;;57.73;;
22425;SDS011;11380;50.822;15.790;2022-10-31T21:26:37;57.83;;;52.10;;
22425;SDS011;11380;50.822;15.790;2022-10-31T21:31:45;57.13;;;51.63;;
22425;SDS011;11380;50.822;15.790;2022-10-31T21:36:52;57.47;;;52.00;;
22425;SDS011;11380;50.822;15.790;2022-10-31T21:41:58;56.80;;;51.50;;
22425;SDS011;11380;50.822;15.790;2022-10-31T21:47:04;55.27;;;50.23;;
22425;SDS011;11380;50.822;15.790;2022-10-31T21:52:09;55.57;;;50.50;;
22425;SDS011;11380;50.822;15.790;2022-10-31T21:57:14;56.00;;;50.70;;
22425;SDS011;11380;50.822;15.790;2022-10-31T22:02:20;55.90;;;50.63;;
22425;SDS011;11380;50.822;15.790;2022-10-31T22:07:25;57.53;;;51.93;;
22425;SDS011;11380;50.822;15.790;2022-10-31T22:12:31;64.12;;;57.58;;
22425;SDS011;11380;50.822;15.790;2022-10-31T22:17:37;58.80;;;53.10;;
22425;SDS011;11380;50.822;15.790;2022-10-31T22:22:42;56.10;;;50.77;;
22425;SDS011;11380;50.822;15.790;2022-10-31T22:27:50;57.13;;;51.03;;
22425;SDS011;11380;50.822;15.790;2022-10-31T22:32:56;57.13;;;51.77;;
22425;SDS011;11380;50.822;15.790;2022-10-31T22:38:01;109.73;;;68.63;;
22425;SDS011;11380;50.822;15.790;2022-10-31T22:43:07;77.03;;;58.23;;
22425;SDS011;11380;50.822;15.790;2022-10-31T22:48:14;59.27;;;52.90;;
22425;SDS011;11380;50.822;15.790;2022-10-31T22:53:19;54.97;;;49.70;;
22425;SDS011;11380;50.822;15.790;2022-10-31T22:58:25;54.93;;;49.83;;
22425;SDS011;11380;50.822;15.790;2022-10-31T23:03:33;54.13;;;49.23;;
22425;SDS011;11380;50.822;15.790;2022-10-31T23:08:39;52.87;;;48.10;;
22425;SDS011;11380;50.822;15.790;2022-10-31T23:13:46;53.63;;;48.73;;
22425;SDS011;11380;50.822;15.790;2022-10-31T23:19:19;53.67;;;48.77;;
22425;SDS011;11380;50.822;15.790;2022-10-31T23:24:39;54.48;;;49.63;;
22425;SDS011;11380;50.822;15.790;2022-10-31T23:29:46;53.53;;;48.67;;
22425;SDS011;11380;50.822;15.790;2022-10-31T23:34:57;52.77;;;48.17;;
22425;SDS011;11380;50.822;15.790;2022-10-31T23:40:05;54.33;;;49.37;;
22425;SDS011;11380;50.822;15.790;2022-10-31T23:45:11;64.80;;;54.60;;
22425;SDS011;11380;50.822;15.790;2022-10-31T23:50:18;84.40;;;56.30;;
22425;SDS011;11380;50.822;15.790;2022-10-31T23:55:23;61.50;;;52.35;;
